Time;durP1;ratioP1;P1;durP2;ratioP2;P2;SDS_P1;SDS_P2;PMS_P1;PMS_P2;Temp;Humidity;BMP_temperature;BMP_pressure;BME280_temperature;BME280_humidity;BME280_pressure;Samples;Min_cycle;Max_cycle;Signal;HPM_P1;HPM_P2
2022/03/31 00:01:30;;;;;;;11.30;6.65;;;6.70;72.80;;;;;;4965922;28;20045;-78
2022/03/31 00:03:56;;;;;;;10.35;6.88;;;6.60;72.70;;;;;;4942064;28;20180;-78
2022/03/31 00:06:21;;;;;;;10.55;6.30;;;6.60;72.80;;;;;;4955102;28;20118;-78
2022/03/31 00:08:47;;;;;;;16.50;7.65;;;6.60;72.80;;;;;;4980434;28;20034;-78
2022/03/31 00:11:12;;;;;;;12.18;6.97;;;6.60;72.80;;;;;;4961952;28;20428;-79
2022/03/31 00:13:38;;;;;;;13.05;7.97;;;6.60;72.80;;;;;;4968680;28;20503;-78
2022/03/31 00:16:04;;;;;;;13.20;7.80;;;6.60;72.80;;;;;;4954914;28;20105;-78
2022/03/31 00:18:31;;;;;;;11.18;7.10;;;6.60;72.80;;;;;;4960795;28;20114;-78
2022/03/31 00:20:56;;;;;;;11.70;7.75;;;6.60;72.80;;;;;;4948074;28;20041;-78
2022/03/31 00:23:22;;;;;;;9.30;6.57;;;6.50;72.80;;;;;;4976089;28;20031;-78
2022/03/31 00:25:48;;;;;;;11.20;7.20;;;6.50;72.80;;;;;;4963140;28;20113;-78
2022/03/31 00:28:14;;;;;;;10.68;6.80;;;6.50;72.80;;;;;;4967552;28;20094;-78
2022/03/31 00:30:39;;;;;;;11.50;6.90;;;6.40;72.80;;;;;;4966327;28;20936;-78
2022/03/31 00:33:05;;;;;;;12.57;7.15;;;6.40;72.80;;;;;;4976891;28;20122;-78
2022/03/31 00:35:31;;;;;;;11.55;7.07;;;6.40;72.90;;;;;;4958784;28;20400;-78
2022/03/31 00:37:56;;;;;;;11.85;7.32;;;6.40;72.90;;;;;;4934789;28;20097;-78
2022/03/31 00:40:22;;;;;;;11.38;7.05;;;6.30;72.90;;;;;;4945751;28;20033;-78
2022/03/31 00:42:51;;;;;;;11.80;7.43;;;6.30;72.80;;;;;;4923914;28;20039;-78
2022/03/31 00:45:20;;;;;;;12.35;6.90;;;6.30;72.90;;;;;;4972490;28;20117;-78
2022/03/31 00:47:46;;;;;;;10.73;7.38;;;6.20;72.90;;;;;;4944421;28;20035;-78
2022/03/31 00:50:13;;;;;;;11.30;7.32;;;6.20;72.90;;;;;;4975780;28;20035;-78
2022/03/31 00:52:39;;;;;;;10.70;7.10;;;6.20;72.80;;;;;;4964618;28;20189;-78
2022/03/31 00:55:06;;;;;;;10.90;6.95;;;6.10;72.80;;;;;;4976627;28;20068;-78
2022/03/31 00:57:32;;;;;;;11.93;7.07;;;6.10;72.90;;;;;;4946808;28;20121;-78
2022/03/31 00:59:57;;;;;;;12.90;7.07;;;6.00;72.90;;;;;;4962607;28;20497;-78
2022/03/31 01:02:25;;;;;;;11.88;7.10;;;6.00;72.90;;;;;;4939984;28;20042;-78
2022/03/31 01:04:51;;;;;;;10.07;6.70;;;6.00;73.00;;;;;;4943226;28;20034;-78
2022/03/31 01:07:17;;;;;;;11.45;7.10;;;5.90;73.00;;;;;;4981623;28;20066;-78
2022/03/31 01:09:42;;;;;;;11.38;6.38;;;6.00;73.10;;;;;;4951656;28;20039;-78
2022/03/31 01:12:08;;;;;;;10.30;7.07;;;5.90;73.10;;;;;;4945267;28;20053;-78
2022/03/31 01:14:34;;;;;;;13.20;6.88;;;5.90;73.10;;;;;;4963691;28;20034;-76
2022/03/31 01:17:00;;;;;;;10.55;7.15;;;5.80;73.10;;;;;;4958300;28;20081;-77
2022/03/31 01:19:25;;;;;;;10.82;7.00;;;5.80;73.20;;;;;;4928835;28;20049;-77
2022/03/31 01:21:51;;;;;;;11.10;6.80;;;5.80;73.30;;;;;;4961663;28;20432;-77
2022/03/31 01:24:18;;;;;;;11.25;6.88;;;5.80;73.30;;;;;;4991084;28;20702;-77
2022/03/31 01:26:44;;;;;;;12.18;7.93;;;5.80;73.30;;;;;;4986374;28;20492;-76
2022/03/31 01:29:09;;;;;;;11.57;7.32;;;5.80;73.40;;;;;;4956658;28;20106;-77
2022/03/31 01:31:37;;;;;;;12.52;7.18;;;5.80;73.50;;;;;;4955045;28;20096;-77
2022/03/31 01:34:03;;;;;;;13.88;8.00;;;5.80;73.50;;;;;;4945264;28;20254;-77
2022/03/31 01:36:28;;;;;;;11.15;6.82;;;5.70;73.40;;;;;;4970269;28;20516;-76
2022/03/31 01:38:55;;;;;;;11.15;7.28;;;5.70;73.50;;;;;;4971802;28;20035;-77
2022/03/31 01:41:21;;;;;;;12.23;7.03;;;5.70;73.50;;;;;;4941693;28;20030;-77
2022/03/31 01:43:47;;;;;;;12.55;7.10;;;5.70;73.60;;;;;;4966741;28;20052;-77
2022/03/31 01:46:13;;;;;;;12.75;7.35;;;5.70;73.70;;;;;;4971218;28;20431;-77
2022/03/31 01:48:38;;;;;;;10.68;6.70;;;5.70;73.70;;;;;;4993380;28;20041;-76
2022/03/31 01:51:04;;;;;;;10.57;6.70;;;5.70;73.80;;;;;;4967076;28;20085;-77
2022/03/31 01:53:31;;;;;;;11.18;7.20;;;5.70;73.80;;;;;;4964923;28;20121;-77
2022/03/31 01:55:56;;;;;;;11.43;7.30;;;5.70;73.90;;;;;;4970989;28;20043;-77
2022/03/31 01:58:22;;;;;;;12.10;7.45;;;5.70;73.90;;;;;;4949177;28;20108;-77
2022/03/31 02:00:48;;;;;;;12.23;6.68;;;5.70;74.00;;;;;;4961602;28;20046;-77
2022/03/31 02:03:13;;;;;;;11.38;7.45;;;5.70;74.10;;;;;;4963256;28;20053;-78
2022/03/31 02:05:39;;;;;;;10.57;6.60;;;5.70;74.10;;;;;;4963999;28;20058;-77
2022/03/31 02:08:04;;;;;;;10.45;6.90;;;5.70;74.10;;;;;;4951457;28;20078;-77
2022/03/31 02:10:30;;;;;;;12.38;7.03;;;5.70;74.10;;;;;;4946475;28;20128;-77
2022/03/31 02:12:56;;;;;;;12.60;7.63;;;5.70;74.20;;;;;;4938657;28;20026;-77
2022/03/31 02:15:21;;;;;;;12.05;7.03;;;5.70;74.10;;;;;;4945771;28;20045;-77
2022/03/31 02:17:48;;;;;;;11.38;7.22;;;5.70;74.20;;;;;;4959985;28;20054;-77
2022/03/31 02:20:13;;;;;;;15.50;8.43;;;5.70;74.10;;;;;;4964666;28;20051;-77
2022/03/31 02:22:39;;;;;;;16.08;8.63;;;5.70;74.10;;;;;;4919478;28;20488;-77
2022/03/31 02:25:08;;;;;;;17.73;9.00;;;5.70;74.20;;;;;;4979316;28;20030;-77
2022/03/31 02:27:33;;;;;;;15.70;8.80;;;5.70;74.30;;;;;;4953621;28;20038;-76
2022/03/31 02:29:59;;;;;;;16.70;9.27;;;5.70;74.40;;;;;;4938961;28;20031;-77
2022/03/31 02:32:24;;;;;;;16.85;8.43;;;5.70;74.40;;;;;;4969606;28;20026;-77
2022/03/31 02:34:51;;;;;;;19.25;9.45;;;5.70;74.40;;;;;;4944326;28;20156;-77
2022/03/31 02:37:16;;;;;;;19.63;10.48;;;5.70;74.50;;;;;;4991212;28;20041;-77
2022/03/31 02:39:42;;;;;;;14.57;8.82;;;5.70;74.60;;;;;;4973156;28;20443;-77
2022/03/31 02:42:07;;;;;;;15.63;8.85;;;5.70;74.70;;;;;;4972006;28;20045;-77
2022/03/31 02:44:33;;;;;;;15.38;9.05;;;5.80;74.80;;;;;;4964982;28;20272;-77
2022/03/31 02:46:58;;;;;;;20.55;10.05;;;5.70;74.70;;;;;;4941968;28;20102;-76
2022/03/31 02:49:24;;;;;;;19.13;10.55;;;5.70;74.80;;;;;;4947854;28;20142;-77
2022/03/31 02:51:49;;;;;;;17.33;9.80;;;5.70;74.80;;;;;;4970372;28;20054;-77
2022/03/31 02:56:59;;;;;;;19.75;10.32;;;5.70;74.80;;;;;;4946082;28;20515;-77
2022/03/31 02:59:25;;;;;;;18.35;9.18;;;5.70;74.80;;;;;;4979711;28;20033;-77
2022/03/31 03:01:50;;;;;;;21.25;10.02;;;5.80;74.90;;;;;;4964073;28;20094;-76
2022/03/31 03:04:16;;;;;;;17.40;9.40;;;5.80;74.90;;;;;;4962917;28;20038;-77
2022/03/31 03:06:42;;;;;;;17.00;9.70;;;5.80;74.90;;;;;;4956309;28;20041;-77
2022/03/31 03:09:07;;;;;;;17.02;10.10;;;5.80;74.90;;;;;;4970113;28;20094;-76
2022/03/31 03:11:33;;;;;;;22.88;9.88;;;5.80;74.90;;;;;;4988686;28;20080;-77
2022/03/31 03:13:59;;;;;;;20.20;9.85;;;5.80;74.90;;;;;;4972456;28;20041;-77
2022/03/31 03:16:25;;;;;;;17.35;9.23;;;5.80;74.90;;;;;;4993538;28;20133;-77
2022/03/31 03:18:52;;;;;;;22.48;12.23;;;5.80;74.90;;;;;;4966104;28;20054;-77
2022/03/31 03:21:17;;;;;;;23.35;12.50;;;5.80;74.90;;;;;;4972983;28;20064;-77
2022/03/31 03:23:43;;;;;;;23.27;12.18;;;5.80;74.90;;;;;;4978095;28;20432;-76
2022/03/31 03:26:09;;;;;;;30.30;13.30;;;5.80;74.90;;;;;;4974617;28;20073;-77
2022/03/31 03:28:37;;;;;;;26.35;14.55;;;5.80;74.90;;;;;;4979880;28;20026;-77
2022/03/31 03:31:04;;;;;;;23.65;12.18;;;5.80;75.00;;;;;;4991437;28;20055;-77
2022/03/31 03:33:29;;;;;;;20.85;11.90;;;5.80;75.10;;;;;;4971096;28;20111;-77
2022/03/31 03:35:55;;;;;;;20.83;11.60;;;5.80;75.00;;;;;;4964264;28;20063;-77
2022/03/31 03:38:21;;;;;;;20.50;12.00;;;5.80;75.10;;;;;;4974534;28;20516;-77
2022/03/31 03:40:46;;;;;;;22.05;12.23;;;5.80;75.00;;;;;;4985230;28;20042;-77
2022/03/31 03:43:12;;;;;;;21.27;12.32;;;5.80;75.00;;;;;;4977154;28;20070;-77
2022/03/31 03:45:38;;;;;;;20.92;11.07;;;5.80;75.00;;;;;;4984590;28;20034;-77
2022/03/31 03:48:04;;;;;;;19.83;11.60;;;5.80;75.00;;;;;;4979484;28;20046;-77
2022/03/31 03:50:30;;;;;;;23.52;12.75;;;5.80;75.10;;;;;;4990090;28;20054;-77
2022/03/31 03:52:56;;;;;;;23.38;12.23;;;5.80;75.10;;;;;;4994049;28;20117;-78
2022/03/31 03:55:23;;;;;;;23.30;12.88;;;5.80;75.10;;;;;;4991325;28;20117;-78
2022/03/31 03:57:48;;;;;;;20.35;11.13;;;5.80;75.10;;;;;;4988467;28;20027;-78
2022/03/31 04:00:14;;;;;;;21.13;11.90;;;5.80;75.10;;;;;;4989724;28;20027;-78
2022/03/31 04:02:40;;;;;;;25.67;12.35;;;5.80;75.10;;;;;;4975139;28;20121;-78
2022/03/31 04:05:05;;;;;;;24.25;12.05;;;5.80;75.10;;;;;;4990593;28;20038;-78
2022/03/31 04:07:31;;;;;;;21.67;11.13;;;5.80;75.10;;;;;;4966835;28;20026;-77
2022/03/31 04:09:57;;;;;;;21.98;11.40;;;5.80;75.10;;;;;;4976910;28;20046;-78
2022/03/31 04:12:22;;;;;;;21.30;10.60;;;5.80;75.20;;;;;;4969941;28;20065;-78
2022/03/31 04:14:49;;;;;;;19.13;10.57;;;5.80;75.10;;;;;;4976711;28;20027;-77
2022/03/31 04:17:15;;;;;;;17.02;9.93;;;5.80;75.10;;;;;;4990658;28;20101;-78
2022/03/31 04:19:42;;;;;;;18.20;9.98;;;5.80;75.10;;;;;;4965294;28;20038;-78
2022/03/31 04:22:08;;;;;;;20.25;11.15;;;5.90;75.20;;;;;;4993234;28;20047;-78
2022/03/31 04:24:33;;;;;;;18.10;10.55;;;5.90;75.20;;;;;;4978350;28;20044;-78
2022/03/31 04:26:59;;;;;;;22.77;12.15;;;5.90;75.20;;;;;;4989434;28;20089;-78
2022/03/31 04:29:26;;;;;;;20.65;11.40;;;5.90;75.20;;;;;;4981358;28;20035;-78
2022/03/31 04:31:51;;;;;;;19.65;11.15;;;5.90;75.20;;;;;;4982597;28;20023;-78
2022/03/31 04:34:18;;;;;;;21.27;11.23;;;5.90;75.10;;;;;;4962200;28;20057;-78
2022/03/31 04:36:44;;;;;;;18.33;10.40;;;5.90;75.10;;;;;;4962624;28;20046;-78
2022/03/31 04:39:12;;;;;;;21.63;12.23;;;5.90;75.10;;;;;;4975990;28;20598;-78
2022/03/31 04:41:38;;;;;;;22.98;11.45;;;5.90;75.10;;;;;;4969266;28;20061;-78
2022/03/31 04:44:03;;;;;;;22.10;12.13;;;5.90;75.10;;;;;;4983285;28;20090;-77
2022/03/31 04:46:29;;;;;;;20.83;11.50;;;5.90;75.10;;;;;;4996543;28;20031;-78
2022/03/31 04:48:54;;;;;;;19.63;11.40;;;5.90;75.10;;;;;;4967039;28;20493;-78
2022/03/31 04:51:20;;;;;;;19.40;10.80;;;6.00;75.10;;;;;;4971201;28;20034;-77
2022/03/31 04:53:46;;;;;;;21.48;11.48;;;5.90;75.00;;;;;;4960851;28;20034;-78
2022/03/31 04:56:11;;;;;;;18.33;10.60;;;5.90;75.00;;;;;;4989194;28;20049;-78
2022/03/31 04:58:37;;;;;;;20.65;11.00;;;5.90;75.00;;;;;;4973920;28;20137;-78
2022/03/31 05:01:04;;;;;;;17.55;9.65;;;5.90;75.00;;;;;;4995380;28;20771;-78
2022/03/31 05:03:29;;;;;;;25.50;12.50;;;5.90;75.10;;;;;;4974676;28;20038;-77
2022/03/31 05:05:55;;;;;;;19.73;12.05;;;5.90;75.00;;;;;;4971681;28;20045;-78
2022/03/31 05:08:20;;;;;;;22.98;12.68;;;5.90;75.10;;;;;;4977728;28;20022;-78
2022/03/31 05:10:46;;;;;;;26.50;13.23;;;5.90;75.10;;;;;;4971806;28;20040;-78
2022/03/31 05:13:12;;;;;;;21.55;12.13;;;5.90;75.20;;;;;;4986520;28;20040;-77
2022/03/31 05:15:37;;;;;;;20.60;11.40;;;5.90;75.20;;;;;;4977916;28;20515;-78
2022/03/31 05:18:03;;;;;;;18.85;10.88;;;5.90;75.10;;;;;;4983761;28;20030;-78
2022/03/31 05:20:29;;;;;;;20.40;11.88;;;5.90;75.20;;;;;;4960972;28;20058;-78
2022/03/31 05:22:54;;;;;;;19.90;11.10;;;5.90;75.20;;;;;;4967708;28;20045;-78
2022/03/31 05:25:20;;;;;;;20.63;11.18;;;5.90;75.20;;;;;;4987986;28;20088;-78
2022/03/31 05:27:46;;;;;;;20.70;11.73;;;5.90;75.10;;;;;;4972989;28;20203;-77
2022/03/31 05:30:13;;;;;;;22.15;12.23;;;5.90;75.10;;;;;;4973195;28;20027;-77
2022/03/31 05:32:39;;;;;;;19.30;11.57;;;5.90;75.10;;;;;;4987914;28;20136;-78
2022/03/31 05:35:06;;;;;;;25.20;12.63;;;5.90;75.10;;;;;;4977514;28;20023;-77
2022/03/31 05:37:33;;;;;;;25.48;13.27;;;5.90;75.20;;;;;;4940801;28;20038;-77
2022/03/31 05:40:00;;;;;;;39.38;17.13;;;5.90;75.20;;;;;;4972716;28;20112;-77
2022/03/31 05:42:26;;;;;;;38.13;17.83;;;5.90;75.20;;;;;;4981594;28;20369;-77
2022/03/31 05:44:51;;;;;;;39.10;17.25;;;5.90;75.20;;;;;;4942958;28;20114;-78
2022/03/31 05:47:17;;;;;;;30.15;15.55;;;5.90;75.20;;;;;;4985733;28;20096;-77
2022/03/31 05:49:42;;;;;;;23.95;13.00;;;5.90;75.30;;;;;;4965780;28;20045;-78
2022/03/31 05:52:08;;;;;;;23.45;13.20;;;5.90;75.30;;;;;;4970330;28;20104;-77
2022/03/31 05:54:34;;;;;;;27.20;13.48;;;5.90;75.30;;;;;;4993460;28;20318;-77
2022/03/31 05:56:59;;;;;;;23.55;12.90;;;5.90;75.30;;;;;;4960537;28;20046;-77
2022/03/31 05:59:25;;;;;;;26.13;13.18;;;5.90;75.30;;;;;;4953923;28;20058;-77
2022/03/31 06:01:50;;;;;;;24.70;12.23;;;5.90;75.30;;;;;;4979021;28;20035;-77
2022/03/31 06:04:20;;;;;;;23.77;12.05;;;5.90;75.30;;;;;;4962974;28;20027;-77
2022/03/31 06:06:49;;;;;;;21.60;12.07;;;5.90;75.30;;;;;;4992693;28;20088;-78
2022/03/31 06:09:15;;;;;;;19.92;11.90;;;5.90;75.30;;;;;;4958920;28;20055;-78
2022/03/31 06:11:42;;;;;;;20.83;12.60;;;5.90;75.30;;;;;;4984763;28;20099;-78
2022/03/31 06:14:07;;;;;;;20.63;11.95;;;5.90;75.30;;;;;;4954433;28;20039;-78
2022/03/31 06:16:33;;;;;;;25.17;12.75;;;5.90;75.30;;;;;;4996183;28;20045;-78
2022/03/31 06:18:58;;;;;;;20.63;12.48;;;6.00;75.40;;;;;;4985772;28;20655;-78
2022/03/31 06:21:24;;;;;;;21.42;12.15;;;6.00;75.30;;;;;;4977221;28;20568;-78
2022/03/31 06:23:49;;;;;;;19.85;11.52;;;5.90;75.30;;;;;;4977057;28;20031;-77
2022/03/31 06:26:15;;;;;;;20.05;12.15;;;6.00;75.40;;;;;;4960143;28;20772;-77
2022/03/31 06:28:40;;;;;;;24.15;13.88;;;5.90;75.30;;;;;;4965736;28;20030;-78
2022/03/31 06:31:06;;;;;;;22.88;12.80;;;5.90;75.30;;;;;;4959560;28;20030;-77
2022/03/31 06:33:31;;;;;;;23.63;12.95;;;6.00;75.40;;;;;;4974868;28;20034;-77
2022/03/31 06:35:57;;;;;;;20.92;12.30;;;6.00;75.40;;;;;;4988911;28;20046;-78
2022/03/31 06:38:22;;;;;;;25.15;11.88;;;6.00;75.40;;;;;;4975131;28;20031;-79
2022/03/31 06:41:06;;;;;;;21.92;12.07;;;6.00;75.50;;;;;;4982421;28;20041;-78
2022/03/31 06:43:35;;;;;;;19.40;10.65;;;6.00;75.50;;;;;;4974551;28;20041;-79
2022/03/31 06:46:01;;;;;;;19.42;10.70;;;6.00;75.40;;;;;;4976179;28;20034;-79
2022/03/31 06:48:26;;;;;;;24.38;13.50;;;6.10;75.50;;;;;;4952575;28;20061;-78
2022/03/31 06:50:52;;;;;;;20.92;12.45;;;6.10;75.40;;;;;;4978046;28;20089;-78
2022/03/31 06:53:18;;;;;;;20.88;12.20;;;6.10;75.40;;;;;;4956202;28;20023;-77
2022/03/31 06:55:44;;;;;;;20.67;11.93;;;6.10;75.40;;;;;;4966228;28;20126;-77
2022/03/31 06:58:09;;;;;;;21.90;11.95;;;6.10;75.50;;;;;;4980756;28;20046;-78
2022/03/31 07:01:19;;;;;;;21.30;12.38;;;6.10;75.50;;;;;;4972440;28;20051;-78
2022/03/31 07:03:44;;;;;;;20.92;11.55;;;6.10;75.70;;;;;;4972511;28;20021;-78
2022/03/31 07:06:10;;;;;;;19.40;11.45;;;6.10;75.30;;;;;;4977922;28;20545;-77
2022/03/31 07:08:35;;;;;;;19.95;12.88;;;6.10;75.30;;;;;;4973254;28;20035;-77
2022/03/31 07:11:03;;;;;;;17.98;10.75;;;6.10;75.40;;;;;;4988527;28;20033;-78
2022/03/31 07:13:29;;;;;;;22.63;12.27;;;6.20;75.40;;;;;;4971830;28;20031;-77
2022/03/31 07:15:54;;;;;;;23.02;14.63;;;6.20;75.40;;;;;;4978514;28;20045;-77
2022/03/31 07:18:20;;;;;;;23.80;13.90;;;6.20;75.40;;;;;;4988782;28;20125;-77
2022/03/31 07:20:45;;;;;;;21.27;12.63;;;6.20;75.30;;;;;;4982922;28;20076;-77
2022/03/31 07:23:12;;;;;;;21.45;13.23;;;6.20;75.30;;;;;;4974521;28;20041;-77
2022/03/31 07:25:37;;;;;;;24.85;13.75;;;6.30;75.30;;;;;;5008019;28;20037;-78
2022/03/31 07:28:03;;;;;;;21.92;12.80;;;6.30;76.10;;;;;;5012504;28;20034;-77
2022/03/31 07:30:29;;;;;;;22.25;12.45;;;6.30;75.30;;;;;;5006226;28;20048;-77
2022/03/31 07:32:56;;;;;;;19.85;12.00;;;6.30;75.30;;;;;;5004226;28;20037;-77
2022/03/31 07:35:23;;;;;;;23.42;13.45;;;6.30;75.30;;;;;;4994065;28;20120;-78
2022/03/31 07:37:49;;;;;;;22.25;13.07;;;6.30;75.30;;;;;;5013892;28;20482;-78
2022/03/31 07:40:15;;;;;;;18.85;11.77;;;6.40;75.40;;;;;;4997112;28;20038;-78
2022/03/31 07:42:41;;;;;;;21.23;12.43;;;6.40;75.30;;;;;;4951989;28;20061;-77
2022/03/31 07:45:07;;;;;;;19.65;12.15;;;6.40;75.30;;;;;;4991804;28;20085;-78
2022/03/31 07:47:32;;;;;;;19.85;12.32;;;6.50;75.20;;;;;;5012837;28;20285;-78
2022/03/31 07:49:58;;;;;;;20.30;11.95;;;6.50;75.20;;;;;;4969006;28;20034;-77
2022/03/31 07:52:23;;;;;;;20.80;12.52;;;6.50;75.20;;;;;;4998272;28;20046;-78
2022/03/31 07:54:49;;;;;;;20.45;12.02;;;6.50;75.10;;;;;;5008109;28;20034;-78
2022/03/31 07:57:15;;;;;;;21.95;12.77;;;6.50;75.10;;;;;;4982087;28;20042;-77
2022/03/31 07:59:40;;;;;;;22.02;12.20;;;6.50;75.10;;;;;;4993791;28;20101;-77
2022/03/31 08:02:06;;;;;;;21.80;12.48;;;6.60;75.30;;;;;;5000931;28;20088;-77
2022/03/31 08:04:32;;;;;;;20.70;12.43;;;6.60;75.20;;;;;;4990645;28;20125;-78
2022/03/31 08:06:57;;;;;;;18.05;11.25;;;6.60;75.10;;;;;;4995328;28;20084;-77
2022/03/31 08:09:23;;;;;;;18.73;12.02;;;6.60;75.10;;;;;;5015469;28;20101;-78
2022/03/31 08:11:49;;;;;;;20.27;12.50;;;6.60;75.00;;;;;;5004785;28;20046;-78
2022/03/31 08:14:16;;;;;;;19.63;11.98;;;6.70;75.10;;;;;;4996818;28;20038;-77
2022/03/31 08:16:46;;;;;;;21.38;12.65;;;6.70;75.10;;;;;;5012364;28;20064;-78
2022/03/31 08:19:12;;;;;;;19.08;12.20;;;6.70;75.10;;;;;;4984562;28;20063;-77
2022/03/31 08:21:37;;;;;;;18.25;11.40;;;6.70;75.10;;;;;;5011917;28;20129;-78
2022/03/31 08:24:03;;;;;;;20.80;11.98;;;6.70;75.10;;;;;;5011486;28;20125;-78
2022/03/31 08:26:28;;;;;;;21.98;12.98;;;6.70;75.10;;;;;;4994371;28;20044;-77
2022/03/31 08:28:54;;;;;;;20.48;12.65;;;6.70;75.00;;;;;;5016497;28;20034;-78
2022/03/31 08:31:20;;;;;;;18.90;11.88;;;6.80;75.10;;;;;;5009200;28;20094;-78
2022/03/31 08:33:45;;;;;;;22.10;13.13;;;6.80;75.10;;;;;;4979774;28;20480;-77
2022/03/31 08:36:11;;;;;;;19.58;11.40;;;6.80;75.00;;;;;;5016722;28;20058;-77
2022/03/31 08:38:36;;;;;;;21.45;12.23;;;6.80;75.00;;;;;;5015960;28;20373;-77
2022/03/31 08:41:02;;;;;;;18.50;12.02;;;6.90;75.10;;;;;;5006175;28;20049;-77
2022/03/31 08:43:28;;;;;;;20.73;12.13;;;6.90;75.10;;;;;;5002811;28;20034;-77
2022/03/31 08:45:55;;;;;;;20.27;12.70;;;6.90;75.10;;;;;;4987630;28;20473;-77
2022/03/31 08:48:22;;;;;;;22.48;12.50;;;7.00;75.00;;;;;;5013333;28;20124;-78
2022/03/31 08:54:10;;;;;;;18.38;11.68;;;7.00;75.10;;;;;;5017874;28;20110;-77
2022/03/31 08:56:36;;;;;;;18.17;12.35;;;7.10;74.80;;;;;;4987809;28;20041;-77
2022/03/31 08:59:02;;;;;;;20.85;12.88;;;7.10;74.90;;;;;;4991388;28;20072;-77
2022/03/31 09:01:28;;;;;;;21.30;12.63;;;7.10;75.00;;;;;;4986094;28;20124;-77
2022/03/31 09:03:53;;;;;;;19.75;11.73;;;7.10;74.90;;;;;;4971498;28;20046;-77
2022/03/31 09:06:26;;;;;;;19.50;11.75;;;7.20;75.80;;;;;;4975005;28;20531;-77
2022/03/31 09:08:58;;;;;;;19.40;11.68;;;7.20;75.00;;;;;;4963821;28;20396;-77
2022/03/31 09:11:30;;;;;;;22.23;13.27;;;7.20;75.00;;;;;;4999098;28;20039;-77
2022/03/31 09:13:57;;;;;;;19.08;12.18;;;7.20;74.90;;;;;;4993182;28;20034;-78
2022/03/31 09:16:35;;;;;;;21.90;12.65;;;7.30;74.80;;;;;;4967767;28;20101;-77
2022/03/31 09:19:05;;;;;;;19.80;12.25;;;7.30;74.90;;;;;;4968062;28;20040;-77
2022/03/31 09:21:31;;;;;;;23.13;12.18;;;7.30;74.80;;;;;;4956186;28;20557;-77
2022/03/31 09:23:57;;;;;;;21.35;11.98;;;7.40;74.80;;;;;;4961073;28;20863;-79
2022/03/31 09:26:23;;;;;;;17.63;11.05;;;7.40;74.70;;;;;;5000569;28;20041;-78
2022/03/31 09:28:50;;;;;;;20.35;12.93;;;7.40;74.70;;;;;;4992178;28;20040;-78
2022/03/31 09:31:22;;;;;;;20.60;12.60;;;7.50;74.60;;;;;;4981698;28;20132;-78
2022/03/31 09:33:56;;;;;;;22.15;12.90;;;7.50;74.60;;;;;;4975551;28;20111;-78
2022/03/31 09:36:22;;;;;;;19.20;12.55;;;7.50;74.60;;;;;;4994812;28;20531;-79
2022/03/31 09:38:58;;;;;;;19.13;12.30;;;7.50;74.50;;;;;;4941284;28;20145;-77
2022/03/31 09:41:32;;;;;;;20.70;12.63;;;7.60;74.70;;;;;;5003247;28;20088;-78
2022/03/31 09:44:00;;;;;;;22.70;12.57;;;7.60;74.60;;;;;;4941910;28;20042;-78
2022/03/31 09:46:35;;;;;;;18.88;12.05;;;7.60;74.50;;;;;;4947657;28;20046;-79
2022/03/31 09:49:21;;;;;;;22.08;12.80;;;7.70;74.50;;;;;;4966030;28;20572;-78
2022/03/31 09:51:54;;;;;;;23.98;13.02;;;7.70;74.60;;;;;;4943871;28;20470;-78
2022/03/31 09:54:23;;;;;;;17.42;11.43;;;7.70;74.40;;;;;;4964457;28;20035;-78
2022/03/31 09:56:49;;;;;;;18.38;11.43;;;7.70;74.30;;;;;;4965078;28;20046;-78
2022/03/31 09:59:16;;;;;;;19.63;11.82;;;7.70;74.30;;;;;;4971961;28;20168;-77
2022/03/31 10:01:41;;;;;;;21.75;12.43;;;7.80;74.40;;;;;;4980789;28;20048;-77
2022/03/31 10:04:08;;;;;;;21.52;11.98;;;7.80;74.30;;;;;;4981574;28;20033;-78
2022/03/31 10:06:37;;;;;;;18.90;11.52;;;7.80;74.20;;;;;;4996134;28;20121;-79
2022/03/31 10:09:03;;;;;;;20.70;11.40;;;7.90;74.30;;;;;;4964305;28;20057;-77
2022/03/31 10:11:30;;;;;;;19.75;12.10;;;7.90;74.20;;;;;;4977859;28;20677;-78
2022/03/31 10:14:33;;;;;;;17.00;10.63;;;7.90;74.10;;;;;;4987154;28;20037;-78
2022/03/31 10:17:01;;;;;;;16.85;10.85;;;7.90;74.20;;;;;;4992234;28;20404;-78
2022/03/31 10:19:35;;;;;;;17.10;10.90;;;8.00;74.00;;;;;;4968900;28;20037;-78
2022/03/31 10:25:09;;;;;;;18.05;11.23;;;8.00;74.00;;;;;;4982387;28;20068;-78
2022/03/31 10:27:36;;;;;;;17.27;11.02;;;8.10;73.80;;;;;;4973431;28;20087;-78
2022/03/31 10:30:16;;;;;;;15.80;10.98;;;8.10;73.80;;;;;;4963504;28;20034;-79
2022/03/31 10:32:56;;;;;;;17.88;11.18;;;8.20;73.80;;;;;;4949094;28;20049;-78
2022/03/31 10:35:26;;;;;;;15.27;10.38;;;8.20;73.80;;;;;;4958787;28;20045;-78
2022/03/31 10:37:51;;;;;;;16.38;10.40;;;8.20;73.60;;;;;;4987123;28;20042;-78
2022/03/31 10:40:33;;;;;;;18.25;11.00;;;8.30;73.60;;;;;;4999041;28;20034;-78
2022/03/31 10:42:59;;;;;;;18.40;10.95;;;8.40;73.70;;;;;;4991883;28;20033;-77
2022/03/31 10:45:38;;;;;;;15.68;9.98;;;8.40;73.50;;;;;;4962549;28;20079;-78
2022/03/31 10:48:18;;;;;;;15.77;10.02;;;8.40;73.50;;;;;;4936972;28;20172;-77
2022/03/31 10:50:44;;;;;;;15.45;9.88;;;8.40;73.50;;;;;;4949492;28;20117;-78
2022/03/31 10:53:10;;;;;;;17.08;10.93;;;8.50;73.30;;;;;;4952606;28;20094;-77
2022/03/31 10:55:47;;;;;;;17.02;10.90;;;8.50;73.30;;;;;;4976537;28;20051;-78
2022/03/31 10:58:26;;;;;;;14.95;9.75;;;8.60;73.30;;;;;;4933914;28;20038;-79
2022/03/31 11:00:54;;;;;;;15.32;10.20;;;8.60;73.20;;;;;;4937070;28;20404;-78
2022/03/31 11:03:20;;;;;;;17.20;10.88;;;8.60;73.10;;;;;;4932718;28;20026;-79
2022/03/31 11:05:47;;;;;;;17.20;11.00;;;8.70;73.10;;;;;;4954045;28;20026;-78
2022/03/31 11:08:17;;;;;;;16.40;10.70;;;8.70;73.00;;;;;;5001124;28;20668;-78
2022/03/31 11:10:47;;;;;;;15.88;10.38;;;8.80;72.90;;;;;;4977744;28;20033;-78
2022/03/31 11:13:15;;;;;;;14.38;9.77;;;8.80;72.90;;;;;;4979998;28;20035;-78
2022/03/31 11:15:41;;;;;;;17.02;10.80;;;8.90;72.80;;;;;;4973233;28;20034;-77
2022/03/31 11:18:07;;;;;;;15.48;10.40;;;8.90;72.70;;;;;;4960720;28;20084;-78
2022/03/31 11:20:33;;;;;;;17.48;11.00;;;8.90;72.50;;;;;;4968806;28;20037;-77
2022/03/31 11:23:03;;;;;;;19.67;10.63;;;8.90;72.50;;;;;;4967132;28;20038;-79
2022/03/31 11:25:29;;;;;;;22.70;11.75;;;9.00;72.50;;;;;;4960450;28;20045;-78
2022/03/31 11:27:56;;;;;;;15.02;9.88;;;9.10;72.40;;;;;;4978118;28;20022;-78
2022/03/31 11:30:24;;;;;;;15.45;10.25;;;9.10;72.40;;;;;;5000713;28;20050;-78
2022/03/31 11:32:54;;;;;;;14.90;9.80;;;9.20;72.40;;;;;;4943793;28;20064;-78
2022/03/31 11:35:21;;;;;;;15.00;9.85;;;9.30;72.30;;;;;;4961336;28;20042;-78
2022/03/31 11:37:51;;;;;;;15.30;9.30;;;9.30;72.10;;;;;;4953364;28;20061;-79
2022/03/31 11:40:27;;;;;;;16.55;10.15;;;9.40;72.10;;;;;;4985979;28;20117;-77
2022/03/31 11:42:55;;;;;;;14.80;9.35;;;9.40;71.90;;;;;;4929304;28;20646;-79
2022/03/31 11:45:38;;;;;;;19.40;9.23;;;9.40;71.70;;;;;;4962940;28;20473;-79
2022/03/31 11:48:17;;;;;;;15.63;9.40;;;9.40;71.70;;;;;;4966483;28;20038;-77
2022/03/31 11:50:52;;;;;;;13.93;9.32;;;9.50;71.60;;;;;;4982613;28;20062;-79
2022/03/31 11:53:26;;;;;;;16.85;10.52;;;9.50;71.50;;;;;;4965560;28;20053;-78
2022/03/31 11:55:56;;;;;;;20.30;13.20;;;9.50;71.40;;;;;;4991142;28;20060;-78
2022/03/31 11:58:21;;;;;;;14.48;9.95;;;9.50;71.40;;;;;;4957805;28;20054;-78
2022/03/31 12:00:50;;;;;;;14.20;10.13;;;9.50;71.30;;;;;;4996387;28;20056;-79
2022/03/31 12:03:17;;;;;;;14.82;10.23;;;9.50;71.20;;;;;;4944180;28;20166;-78
2022/03/31 12:06:03;;;;;;;16.13;9.88;;;9.50;71.10;;;;;;4976452;28;20033;-77
2022/03/31 12:08:29;;;;;;;16.33;9.82;;;9.60;71.10;;;;;;4984270;28;20078;-78
2022/03/31 12:10:54;;;;;;;15.75;10.38;;;9.60;71.00;;;;;;4941096;28;20124;-78
2022/03/31 12:13:21;;;;;;;13.88;8.95;;;9.60;70.90;;;;;;4937101;28;20033;-78
2022/03/31 12:15:46;;;;;;;13.57;9.63;;;9.60;70.80;;;;;;4950973;28;20050;-79
2022/03/31 12:18:13;;;;;;;15.55;10.02;;;9.60;70.80;;;;;;4981215;28;20566;-78
2022/03/31 12:20:39;;;;;;;24.90;16.13;;;9.60;70.80;;;;;;4974057;28;20030;-78
2022/03/31 12:23:28;;;;;;;18.77;12.65;;;9.60;70.70;;;;;;4950052;28;20550;-78
2022/03/31 12:25:54;;;;;;;14.90;9.95;;;9.60;70.60;;;;;;4981674;28;20034;-78
2022/03/31 12:28:23;;;;;;;17.13;9.73;;;9.60;70.50;;;;;;4948744;28;20109;-77
2022/03/31 12:30:53;;;;;;;13.50;8.93;;;9.50;70.40;;;;;;4949288;28;20049;-78
2022/03/31 12:33:21;;;;;;;14.18;8.80;;;9.50;70.40;;;;;;4977353;28;20053;-78
2022/03/31 12:36:10;;;;;;;13.80;9.25;;;9.50;70.40;;;;;;4964092;28;20080;-77
2022/03/31 12:38:49;;;;;;;14.02;8.70;;;9.50;70.40;;;;;;4937591;28;20705;-79
2022/03/31 12:41:22;;;;;;;15.82;8.63;;;9.50;70.30;;;;;;4949495;28;20034;-79
2022/03/31 12:44:04;;;;;;;13.88;9.30;;;9.50;70.30;;;;;;4983108;28;20033;-79
2022/03/31 12:46:35;;;;;;;11.60;8.30;;;9.50;70.40;;;;;;4985377;28;20064;-78
2022/03/31 12:49:04;;;;;;;19.20;10.52;;;9.50;70.40;;;;;;4969665;28;20065;-79
2022/03/31 12:51:46;;;;;;;16.67;9.90;;;9.50;70.40;;;;;;4993058;28;20500;-78